createdAt,value
2022-10-06T00:00:07.328Z,0
2022-10-06T00:03:07.463Z,0
2022-10-06T00:06:07.273Z,0
2022-10-06T00:09:07.284Z,0
2022-10-06T00:12:07.287Z,0
2022-10-06T00:15:07.286Z,0
2022-10-06T00:18:07.401Z,0
2022-10-06T00:21:07.243Z,0
2022-10-06T00:24:07.329Z,0
2022-10-06T00:27:07.307Z,0
2022-10-06T00:30:07.331Z,0
2022-10-06T00:33:07.291Z,0
2022-10-06T00:36:07.386Z,0
2022-10-06T00:39:07.319Z,0
2022-10-06T00:42:07.331Z,0
2022-10-06T00:45:07.307Z,0
2022-10-06T00:48:07.283Z,0
2022-10-06T00:51:07.290Z,0
2022-10-06T00:54:07.670Z,0
2022-10-06T00:57:07.279Z,0
2022-10-06T01:00:07.303Z,0
2022-10-06T01:03:07.700Z,0
2022-10-06T01:06:07.292Z,0
2022-10-06T01:09:07.308Z,0
2022-10-06T01:12:07.279Z,0
2022-10-06T01:15:07.315Z,0
2022-10-06T01:18:07.296Z,0
2022-10-06T01:21:07.408Z,0
2022-10-06T01:24:07.373Z,0
2022-10-06T01:27:07.347Z,0
2022-10-06T01:30:07.330Z,0
2022-10-06T01:33:07.316Z,0
2022-10-06T01:36:07.290Z,0
2022-10-06T01:39:07.413Z,0
2022-10-06T01:42:07.387Z,0
2022-10-06T01:45:07.332Z,0
2022-10-06T01:48:07.251Z,0
2022-10-06T01:51:07.304Z,0
2022-10-06T01:54:07.323Z,0
2022-10-06T01:57:07.353Z,0
2022-10-06T02:00:07.349Z,0
2022-10-06T02:03:07.270Z,0
2022-10-06T02:06:07.913Z,0
2022-10-06T02:09:07.357Z,0
2022-10-06T02:12:07.371Z,0
2022-10-06T02:15:07.377Z,0
2022-10-06T02:18:07.381Z,0
2022-10-06T02:21:07.337Z,0
2022-10-06T02:24:07.450Z,0
2022-10-06T02:27:07.292Z,0
2022-10-06T02:30:07.334Z,0
2022-10-06T02:33:07.266Z,0
2022-10-06T02:36:07.275Z,0
2022-10-06T02:39:07.307Z,0
2022-10-06T02:42:07.249Z,0
2022-10-06T02:45:07.272Z,0
2022-10-06T02:48:07.252Z,0
2022-10-06T02:51:07.368Z,0
2022-10-06T02:54:07.418Z,0
2022-10-06T02:57:07.300Z,0
2022-10-06T03:00:07.371Z,0
2022-10-06T03:03:07.604Z,0
2022-10-06T03:06:07.287Z,0
2022-10-06T03:09:07.296Z,0
2022-10-06T03:12:07.335Z,0
2022-10-06T03:15:07.281Z,0
2022-10-06T03:18:07.353Z,0
2022-10-06T03:21:07.288Z,0
2022-10-06T03:24:07.312Z,0
2022-10-06T03:27:07.248Z,0
2022-10-06T03:30:07.495Z,0
2022-10-06T03:33:07.251Z,0
2022-10-06T03:36:07.262Z,0
2022-10-06T03:39:07.450Z,0
2022-10-06T03:42:07.281Z,0
2022-10-06T03:45:07.292Z,0
2022-10-06T03:48:07.324Z,0
2022-10-06T03:51:07.263Z,0
2022-10-06T03:54:07.385Z,0
2022-10-06T03:57:07.248Z,0
2022-10-06T04:00:07.473Z,0
2022-10-06T04:03:07.351Z,0
2022-10-06T04:06:07.523Z,0
2022-10-06T04:09:10.281Z,0
2022-10-06T04:12:07.353Z,0
2022-10-06T04:15:07.366Z,0
2022-10-06T04:18:07.294Z,0
2022-10-06T04:21:07.249Z,0
2022-10-06T04:24:07.364Z,0
2022-10-06T04:27:07.298Z,0
2022-10-06T04:30:07.361Z,0
2022-10-06T04:33:07.288Z,0
2022-10-06T04:36:07.260Z,0
2022-10-06T04:39:07.274Z,0
2022-10-06T04:42:07.306Z,0
2022-10-06T04:45:07.369Z,0
2022-10-06T04:48:09.972Z,0
2022-10-06T04:51:07.282Z,0
2022-10-06T04:54:07.274Z,3
2022-10-06T04:57:07.319Z,3
2022-10-06T05:00:19.586Z,7
2022-10-06T05:03:07.315Z,10
2022-10-06T05:06:07.323Z,20
2022-10-06T05:09:07.341Z,33
2022-10-06T05:12:07.332Z,53
2022-10-06T05:15:07.264Z,87
2022-10-06T05:18:07.328Z,130
2022-10-06T05:21:13.500Z,190
2022-10-06T05:24:07.653Z,257
2022-10-06T05:27:08.903Z,340
2022-10-06T05:30:07.510Z,433
2022-10-06T05:33:07.264Z,543
2022-10-06T05:36:07.344Z,663
2022-10-06T05:39:07.379Z,803
2022-10-06T05:42:07.319Z,950
2022-10-06T05:45:07.351Z,1093
2022-10-06T05:48:07.271Z,1280
2022-10-06T05:51:07.300Z,1603
2022-10-06T05:54:07.337Z,1767
2022-10-06T05:57:07.449Z,1613
2022-10-06T06:00:07.407Z,1723
2022-10-06T06:03:07.644Z,2033
2022-10-06T06:06:07.840Z,2273
2022-10-06T06:09:07.365Z,2340
2022-10-06T06:12:07.403Z,3220
2022-10-06T06:15:07.367Z,4247
2022-10-06T06:18:07.291Z,2923
2022-10-06T06:21:07.315Z,5537
2022-10-06T06:24:07.270Z,4610
2022-10-06T06:27:07.358Z,3800
2022-10-06T06:30:07.372Z,5327
2022-10-06T06:33:07.319Z,3853
2022-10-06T06:36:07.282Z,3630
2022-10-06T06:39:07.347Z,5163
2022-10-06T06:42:07.411Z,4777
2022-10-06T06:45:07.357Z,4300
2022-10-06T06:48:07.337Z,3870
2022-10-06T06:51:07.372Z,3140
2022-10-06T06:54:07.442Z,2653
2022-10-06T06:57:07.300Z,2387
2022-10-06T07:00:07.432Z,2510
2022-10-06T07:03:07.333Z,2797
2022-10-06T07:06:07.363Z,3233
2022-10-06T07:09:07.312Z,10570
2022-10-06T07:12:07.325Z,11523
2022-10-06T07:15:07.676Z,12527
2022-10-06T07:18:07.405Z,13167
2022-10-06T07:21:07.361Z,4417
2022-10-06T07:24:07.308Z,4530
2022-10-06T07:27:07.323Z,14233
2022-10-06T07:30:07.386Z,17940
2022-10-06T07:33:07.302Z,10283
2022-10-06T07:36:07.299Z,20413
2022-10-06T07:39:07.364Z,21347
2022-10-06T07:42:07.383Z,22613
2022-10-06T07:45:07.324Z,23943
2022-10-06T07:48:07.522Z,25087
2022-10-06T07:51:07.387Z,9817
2022-10-06T07:54:07.271Z,7237
2022-10-06T07:57:07.414Z,27980
2022-10-06T08:00:10.205Z,29287
2022-10-06T08:03:07.680Z,30307
2022-10-06T08:06:07.310Z,30683
2022-10-06T08:09:07.308Z,31497
2022-10-06T08:12:07.469Z,32603
2022-10-06T08:15:14.142Z,32607
2022-10-06T08:18:45.278Z,33823
2022-10-06T08:21:07.305Z,34967
2022-10-06T08:24:07.365Z,35757
2022-10-06T08:27:07.367Z,35633
2022-10-06T08:30:08.336Z,38153
2022-10-06T08:33:07.346Z,38237
2022-10-06T08:36:07.309Z,40207
2022-10-06T08:39:07.465Z,44103
2022-10-06T08:42:07.394Z,49920
2022-10-06T08:45:07.335Z,21833
2022-10-06T08:48:07.527Z,23890
2022-10-06T08:51:07.389Z,24310
2022-10-06T08:54:07.342Z,29110
2022-10-06T08:57:07.320Z,15080
2022-10-06T09:00:07.375Z,38667
2022-10-06T09:03:07.430Z,14870
2022-10-06T09:06:07.351Z,40903
2022-10-06T09:09:07.428Z,49670
2022-10-06T09:12:07.456Z,35373
2022-10-06T09:15:07.427Z,13183
2022-10-06T09:18:07.436Z,21357
2022-10-06T09:21:07.430Z,13463
2022-10-06T09:24:07.351Z,51667
2022-10-06T09:27:07.366Z,50723
2022-10-06T09:30:07.456Z,50230
2022-10-06T09:33:07.317Z,17817
2022-10-06T09:36:07.348Z,10420
2022-10-06T09:39:07.525Z,49477
2022-10-06T09:42:07.553Z,44637
2022-10-06T09:45:07.341Z,18830
2022-10-06T09:48:07.326Z,49907
2022-10-06T09:51:07.343Z,53737
2022-10-06T09:54:07.415Z,46607
2022-10-06T09:57:07.364Z,49397
2022-10-06T10:00:07.402Z,51453
2022-10-06T10:03:07.745Z,49663
2022-10-06T10:06:07.316Z,52030
2022-10-06T10:09:07.407Z,51417
2022-10-06T10:12:07.539Z,49417
2022-10-06T10:15:07.356Z,50787
2022-10-06T10:18:07.611Z,49233
2022-10-06T10:21:07.367Z,49850
2022-10-06T10:24:07.407Z,49710
2022-10-06T10:27:07.439Z,47653
2022-10-06T10:30:07.486Z,48063
2022-10-06T10:33:07.360Z,48427
2022-10-06T10:36:07.429Z,47700
2022-10-06T10:39:07.260Z,46447
2022-10-06T10:42:07.445Z,48543
2022-10-06T10:45:07.477Z,48280
2022-10-06T10:48:07.360Z,48333
2022-10-06T10:51:07.391Z,49203
2022-10-06T10:54:07.371Z,48920
2022-10-06T10:57:07.321Z,48523
2022-10-06T11:00:07.422Z,47723
2022-10-06T11:06:07.351Z,47477
2022-10-06T11:09:07.325Z,47567
2022-10-06T11:12:07.452Z,47543
2022-10-06T11:15:08.323Z,47463
2022-10-06T11:18:07.488Z,8803
2022-10-06T11:21:07.299Z,10183
2022-10-06T11:24:07.379Z,49627
2022-10-06T11:27:07.383Z,51763
2022-10-06T11:30:08.036Z,50920
2022-10-06T11:33:07.366Z,52097
2022-10-06T11:36:07.375Z,48537
2022-10-06T11:39:07.413Z,50487
2022-10-06T11:42:07.444Z,48210
2022-10-06T11:45:08.350Z,50693
2022-10-06T11:48:07.360Z,48133
2022-10-06T11:51:07.313Z,47150
2022-10-06T11:54:07.458Z,46020
2022-10-06T11:57:07.372Z,46510
2022-10-06T12:00:07.491Z,46227
2022-10-06T12:03:08.126Z,46593
2022-10-06T12:06:07.381Z,12003
2022-10-06T12:09:07.364Z,12860
2022-10-06T12:12:07.392Z,46447
2022-10-06T12:18:07.459Z,43853
2022-10-06T12:21:07.310Z,43930
2022-10-06T12:24:07.720Z,43807
2022-10-06T12:27:07.377Z,42457
2022-10-06T12:30:08.945Z,42423
2022-10-06T12:33:07.386Z,42477
2022-10-06T12:36:07.418Z,41983
2022-10-06T12:39:07.453Z,41873
2022-10-06T12:42:07.365Z,41413
2022-10-06T12:45:08.318Z,40260
2022-10-06T12:48:07.391Z,40120
2022-10-06T12:51:07.311Z,39987
2022-10-06T12:54:07.367Z,39850
2022-10-06T12:57:07.318Z,39850
2022-10-06T13:00:07.614Z,39823
2022-10-06T13:03:07.321Z,39343
2022-10-06T13:06:07.310Z,38363
2022-10-06T13:09:07.407Z,37953
2022-10-06T13:12:07.361Z,38027
2022-10-06T13:15:08.026Z,37693
2022-10-06T13:18:07.382Z,37170
2022-10-06T13:21:07.353Z,36950
2022-10-06T13:24:07.350Z,35853
2022-10-06T13:27:07.349Z,35560
2022-10-06T13:30:08.210Z,35603
2022-10-06T13:33:07.350Z,35447
2022-10-06T13:36:07.418Z,34553
2022-10-06T13:39:07.385Z,34000
2022-10-06T13:42:07.398Z,33613
2022-10-06T13:45:07.491Z,33160
2022-10-06T13:48:07.306Z,32167
2022-10-06T13:51:07.481Z,32360
2022-10-06T13:54:07.381Z,31450
2022-10-06T13:57:07.369Z,31057
2022-10-06T14:00:08.549Z,30517
2022-10-06T14:03:07.917Z,30757
2022-10-06T14:06:07.346Z,29467
2022-10-06T14:09:07.386Z,28577
2022-10-06T14:12:07.362Z,28040
2022-10-06T14:15:08.311Z,28443
2022-10-06T14:18:07.420Z,27733
2022-10-06T14:21:07.346Z,26353
2022-10-06T14:24:14.595Z,27100
2022-10-06T14:27:07.352Z,25600
2022-10-06T14:30:08.633Z,25333
2022-10-06T14:33:07.383Z,23963
2022-10-06T14:36:07.356Z,24310
2022-10-06T14:39:07.410Z,23637
2022-10-06T14:42:07.343Z,23217
2022-10-06T14:45:08.180Z,22737
2022-10-06T14:48:07.321Z,22150
2022-10-06T14:51:07.354Z,21163
2022-10-06T14:54:07.331Z,20687
2022-10-06T14:57:07.354Z,19170
2022-10-06T15:00:08.659Z,19237
2022-10-06T15:03:07.834Z,18903
2022-10-06T15:06:07.355Z,18480
2022-10-06T15:09:07.338Z,18160
2022-10-06T15:12:07.313Z,16900
2022-10-06T15:15:07.354Z,16377
2022-10-06T15:18:07.339Z,16110
2022-10-06T15:21:07.396Z,15433
2022-10-06T15:24:07.373Z,11803
2022-10-06T15:27:07.419Z,12513
2022-10-06T15:30:07.399Z,9117
2022-10-06T15:33:07.380Z,4440
2022-10-06T15:36:07.336Z,3720
2022-10-06T15:39:07.384Z,3510
2022-10-06T15:42:08.836Z,3420
2022-10-06T15:45:14.297Z,3243
2022-10-06T15:48:07.695Z,3127
2022-10-06T15:51:07.360Z,3013
2022-10-06T15:54:07.453Z,2907
2022-10-06T15:57:07.274Z,2773
2022-10-06T16:00:07.377Z,2650
2022-10-06T16:03:07.741Z,2607
2022-10-06T16:06:07.386Z,2660
2022-10-06T16:09:07.448Z,2457
2022-10-06T16:12:07.318Z,4573
2022-10-06T16:15:07.323Z,4027
2022-10-06T16:18:07.367Z,3390
2022-10-06T16:21:07.340Z,1643
2022-10-06T16:24:07.386Z,1350
2022-10-06T16:27:07.348Z,1180
2022-10-06T16:30:07.437Z,1017
2022-10-06T16:33:07.306Z,857
2022-10-06T16:36:07.305Z,713
2022-10-06T16:39:07.364Z,577
2022-10-06T16:42:07.355Z,453
2022-10-06T16:45:07.441Z,350
2022-10-06T16:48:07.298Z,260
2022-10-06T16:51:07.324Z,193
2022-10-06T16:54:07.298Z,133
2022-10-06T16:57:07.324Z,87
2022-10-06T17:00:07.259Z,57
2022-10-06T17:03:07.327Z,33
2022-10-06T17:06:07.320Z,20
2022-10-06T17:09:07.308Z,10
2022-10-06T17:12:07.305Z,7
2022-10-06T17:15:07.258Z,3
2022-10-06T17:18:07.333Z,3
2022-10-06T17:21:47.601Z,0
2022-10-06T17:24:07.352Z,0
2022-10-06T17:27:07.283Z,0
2022-10-06T17:30:07.302Z,0
2022-10-06T17:33:07.307Z,0
2022-10-06T17:36:07.294Z,0
2022-10-06T17:39:07.343Z,0
2022-10-06T17:42:07.302Z,0
2022-10-06T17:45:07.306Z,0
2022-10-06T17:48:07.322Z,0
2022-10-06T17:51:07.325Z,0
2022-10-06T17:54:07.291Z,0
2022-10-06T17:57:07.318Z,0
2022-10-06T18:00:07.313Z,0
2022-10-06T18:03:07.295Z,0
2022-10-06T18:06:07.325Z,0
2022-10-06T18:09:07.282Z,0
2022-10-06T18:12:07.313Z,0
2022-10-06T18:15:07.279Z,0
2022-10-06T18:18:07.282Z,0
2022-10-06T18:21:07.272Z,0
2022-10-06T18:24:07.267Z,0
2022-10-06T18:27:07.355Z,0
2022-10-06T18:30:07.307Z,0
2022-10-06T18:36:21.446Z,0
2022-10-06T18:39:07.299Z,0
2022-10-06T18:42:07.310Z,0
2022-10-06T18:45:07.319Z,0
2022-10-06T18:48:07.269Z,0
2022-10-06T18:51:07.261Z,0
2022-10-06T18:54:07.345Z,0
2022-10-06T18:57:07.236Z,0
2022-10-06T19:00:07.342Z,0
2022-10-06T19:03:07.246Z,0
2022-10-06T19:06:07.332Z,0
2022-10-06T19:09:07.251Z,0
2022-10-06T19:12:07.308Z,0
2022-10-06T19:15:07.255Z,0
2022-10-06T19:18:07.308Z,0
2022-10-06T19:21:13.059Z,0
2022-10-06T19:24:07.311Z,0
2022-10-06T19:27:07.290Z,0
2022-10-06T19:30:07.355Z,0
2022-10-06T19:33:07.329Z,0
2022-10-06T19:36:07.276Z,0
2022-10-06T19:39:07.288Z,0
2022-10-06T19:42:07.289Z,0
2022-10-06T19:45:07.281Z,0
2022-10-06T19:48:07.286Z,0
2022-10-06T19:51:07.289Z,0
2022-10-06T19:54:07.275Z,0
2022-10-06T19:57:12.447Z,0
2022-10-06T20:00:07.376Z,0
2022-10-06T20:03:07.238Z,0
2022-10-06T20:06:07.301Z,0
2022-10-06T20:09:07.280Z,0
2022-10-06T20:12:07.312Z,0
2022-10-06T20:15:07.272Z,0
2022-10-06T20:18:07.296Z,0
2022-10-06T20:21:07.772Z,0
2022-10-06T20:24:07.325Z,0
2022-10-06T20:27:07.357Z,0
2022-10-06T20:30:07.406Z,0
2022-10-06T20:33:07.227Z,0
2022-10-06T20:36:07.294Z,0
2022-10-06T20:39:07.323Z,0
2022-10-06T20:42:10.705Z,0
2022-10-06T20:45:07.406Z,0
2022-10-06T20:48:07.323Z,0
2022-10-06T20:51:07.306Z,0
2022-10-06T20:54:07.325Z,0
2022-10-06T20:57:07.229Z,0
2022-10-06T21:00:07.360Z,0
2022-10-06T21:03:07.929Z,0
2022-10-06T21:06:07.708Z,0
2022-10-06T21:09:07.519Z,0
2022-10-06T21:12:07.520Z,0
2022-10-06T21:15:07.469Z,0
2022-10-06T21:18:07.543Z,0
2022-10-06T21:21:07.496Z,0
2022-10-06T21:24:07.494Z,0
2022-10-06T21:27:07.519Z,0
2022-10-06T21:30:07.554Z,0
2022-10-06T21:33:07.490Z,0
2022-10-06T21:36:07.511Z,0
2022-10-06T21:39:07.552Z,0
2022-10-06T21:42:07.532Z,0
2022-10-06T21:45:07.465Z,0
2022-10-06T21:48:07.531Z,0
2022-10-06T21:51:07.498Z,0
2022-10-06T21:54:07.558Z,0
2022-10-06T21:57:07.467Z,0
2022-10-06T22:00:08.587Z,0
2022-10-06T22:03:07.851Z,0
2022-10-06T22:06:07.536Z,0
2022-10-06T22:09:07.586Z,0
2022-10-06T22:12:07.452Z,0
2022-10-06T22:15:07.473Z,0
2022-10-06T22:18:07.501Z,0
2022-10-06T22:21:07.488Z,0
2022-10-06T22:24:07.516Z,0
2022-10-06T22:27:07.540Z,0
2022-10-06T22:30:07.479Z,0
2022-10-06T22:33:07.522Z,0
2022-10-06T22:36:07.504Z,0
2022-10-06T22:39:07.538Z,0
2022-10-06T22:42:07.482Z,0
2022-10-06T22:45:07.525Z,0
2022-10-06T22:48:07.482Z,0
2022-10-06T22:51:07.513Z,0
2022-10-06T22:54:07.516Z,0
2022-10-06T22:57:07.470Z,0
2022-10-06T23:00:07.610Z,0
2022-10-06T23:03:07.780Z,0
2022-10-06T23:06:07.504Z,0
2022-10-06T23:09:07.491Z,0
2022-10-06T23:12:07.502Z,0
2022-10-06T23:15:07.486Z,0
2022-10-06T23:18:07.540Z,0
2022-10-06T23:21:07.475Z,0
2022-10-06T23:24:07.544Z,0
2022-10-06T23:27:07.497Z,0
2022-10-06T23:30:07.494Z,0
2022-10-06T23:33:07.475Z,0
2022-10-06T23:36:07.522Z,0
2022-10-06T23:39:07.495Z,0
2022-10-06T23:42:07.445Z,0
2022-10-06T23:45:07.540Z,0
2022-10-06T23:48:07.526Z,0
2022-10-06T23:51:07.562Z,0
2022-10-06T23:54:07.558Z,0
2022-10-06T23:57:07.496Z,0
